Time;durP1;ratioP1;P1;durP2;ratioP2;P2;SDS_P1;SDS_P2;PMS_P1;PMS_P2;Temp;Humidity;BMP_temperature;BMP_pressure;BME280_temperature;BME280_humidity;BME280_pressure;Samples;Min_cycle;Max_cycle;Signal;HPM_P1;HPM_P2
2021/10/01 00:00:06;;;;;;;10.80;5.82;;;;;;;14.42;69.61;100605.19;5022457;28;20025;-70
2021/10/01 00:02:32;;;;;;;19.83;5.72;;;;;;;14.49;68.82;100613.16;5033286;28;20045;-70
2021/10/01 00:04:57;;;;;;;9.38;4.72;;;;;;;14.39;69.64;100605.84;5033203;28;20071;-70
2021/10/01 00:07:23;;;;;;;10.10;5.53;;;;;;;14.44;69.54;100605.69;5033300;28;20048;-70
2021/10/01 00:09:48;;;;;;;6.45;4.78;;;;;;;14.42;69.26;100603.22;5030718;28;20072;-70
2021/10/01 00:12:14;;;;;;;7.68;4.95;;;;;;;14.27;69.76;100609.38;5029611;28;20121;-70
2021/10/01 00:14:40;;;;;;;12.90;4.65;;;;;;;14.32;69.77;100597.91;5030388;28;20025;-70
2021/10/01 00:17:06;;;;;;;10.93;5.25;;;;;;;14.35;69.83;100600.06;5031631;28;20025;-70
2021/10/01 00:19:34;;;;;;;7.22;4.57;;;;;;;14.30;70.26;100598.28;5033328;28;20105;-70
2021/10/01 00:22:02;;;;;;;10.95;4.65;;;;;;;14.27;70.27;100593.28;5033890;28;20578;-70
2021/10/01 00:24:29;;;;;;;4.88;4.38;;;;;;;14.21;70.48;100583.38;5032985;28;20030;-70
2021/10/01 00:26:54;;;;;;;5.07;4.43;;;;;;;14.35;69.90;100576.72;5014816;28;20045;-70
2021/10/01 00:29:20;;;;;;;10.38;4.80;;;;;;;14.28;70.25;100574.44;5023462;28;20060;-70
2021/10/01 00:31:45;;;;;;;9.02;4.72;;;;;;;14.28;70.72;100580.06;5032468;28;20033;-70
2021/10/01 00:34:11;;;;;;;15.00;4.70;;;;;;;14.31;70.57;100577.41;5033268;28;20100;-70
2021/10/01 00:36:36;;;;;;;8.70;5.50;;;;;;;14.36;70.13;100572.75;5032570;28;20032;-70
2021/10/01 00:39:05;;;;;;;6.75;4.22;;;;;;;14.35;70.20;100573.91;5032564;28;20025;-70
2021/10/01 00:41:32;;;;;;;9.25;5.43;;;;;;;14.26;70.71;100574.75;5026513;28;20030;-70
2021/10/01 00:43:58;;;;;;;7.90;5.25;;;;;;;14.21;71.30;100577.75;5033030;28;20037;-70
2021/10/01 00:46:23;;;;;;;9.25;5.07;;;;;;;14.25;70.82;100572.28;5033183;28;20040;-70
2021/10/01 00:48:49;;;;;;;8.25;5.30;;;;;;;14.27;71.15;100570.78;5032950;28;20025;-70
2021/10/01 00:51:16;;;;;;;7.60;5.32;;;;;;;14.32;70.44;100567.81;5033223;28;20033;-70
2021/10/01 00:53:43;;;;;;;5.93;5.18;;;;;;;14.30;70.48;100574.91;5030784;28;20044;-70
2021/10/01 00:56:10;;;;;;;8.02;4.85;;;;;;;14.31;70.89;100570.94;5019645;28;20102;-70
2021/10/01 00:58:35;;;;;;;10.15;6.10;;;;;;;14.35;70.29;100566.28;5023970;28;20468;-70
2021/10/01 01:01:10;;;;;;;6.88;5.47;;;;;;;14.33;70.70;100560.19;5013661;28;20049;-70
2021/10/01 01:03:40;;;;;;;7.75;5.97;;;;;;;14.34;70.33;100570.25;5023374;28;20120;-70
2021/10/01 01:06:16;;;;;;;8.40;5.50;;;;;;;14.22;71.06;100572.94;5032472;28;20033;-70
2021/10/01 01:09:09;;;;;;;8.43;6.13;;;;;;;14.38;70.37;100564.81;5032927;28;20033;-70
2021/10/01 01:11:59;;;;;;;8.65;5.80;;;;;;;14.31;70.54;100562.50;5031014;28;20049;-70
2021/10/01 01:14:57;;;;;;;8.85;5.35;;;;;;;14.26;71.03;100562.69;5032620;28;20466;-70
2021/10/01 01:17:32;;;;;;;7.47;5.20;;;;;;;14.25;70.64;100566.66;5023982;28;20445;-70
2021/10/01 01:20:17;;;;;;;8.52;6.03;;;;;;;14.27;70.77;100558.72;5018101;28;20025;-70
2021/10/01 01:23:05;;;;;;;11.43;6.30;;;;;;;14.21;70.95;100552.44;5013074;28;20030;-70
2021/10/01 01:26:12;;;;;;;13.32;6.63;;;;;;;14.29;70.72;100547.94;5019137;28;20026;-70
2021/10/01 01:28:55;;;;;;;12.25;7.68;;;;;;;14.26;71.18;100551.44;5010480;28;20087;-70
2021/10/01 01:31:31;;;;;;;9.27;7.28;;;;;;;14.26;70.99;100548.63;5032202;28;20020;-70
2021/10/01 01:33:59;;;;;;;11.07;7.45;;;;;;;14.17;71.40;100545.78;5031155;28;20539;-70
2021/10/01 01:36:26;;;;;;;19.10;7.45;;;;;;;14.11;71.71;100550.75;5031602;28;20103;-70
2021/10/01 01:38:55;;;;;;;11.18;6.10;;;;;;;14.11;71.76;100550.75;5031961;28;20029;-70
2021/10/01 01:41:22;;;;;;;7.35;6.53;;;;;;;14.12;71.56;100545.97;5032447;28;20033;-70
2021/10/01 01:43:49;;;;;;;10.50;7.22;;;;;;;14.01;71.49;100546.31;5030722;28;20041;-70
2021/10/01 01:46:16;;;;;;;12.57;7.28;;;;;;;13.99;71.99;100564.69;5028700;28;20104;-70
2021/10/01 01:48:43;;;;;;;9.65;6.85;;;;;;;13.93;72.25;100547.13;5014190;28;20025;-71
2021/10/01 01:51:11;;;;;;;10.38;7.22;;;;;;;13.79;72.42;100547.31;5021596;28;20026;-71
2021/10/01 01:53:37;;;;;;;14.40;7.97;;;;;;;13.72;72.89;100549.78;5031886;28;20489;-71
2021/10/01 01:56:05;;;;;;;10.48;7.25;;;;;;;13.69;73.31;100561.72;5031558;28;20041;-70
2021/10/01 01:58:33;;;;;;;7.00;6.03;;;;;;;13.71;72.76;100553.78;5028339;28;20508;-70
2021/10/01 02:00:58;;;;;;;11.20;6.97;;;;;;;13.66;73.06;100556.75;5012341;28;20087;-70
2021/10/01 02:03:25;;;;;;;13.13;10.23;;;;;;;13.57;73.26;100565.16;5015725;28;20412;-70
2021/10/01 02:05:51;;;;;;;10.95;8.05;;;;;;;13.62;73.15;100567.81;5025304;28;20511;-70
2021/10/01 02:08:18;;;;;;;13.48;8.13;;;;;;;13.64;73.10;100562.69;5011081;28;20140;-70
2021/10/01 02:10:46;;;;;;;12.18;7.55;;;;;;;13.54;72.83;100566.66;5017214;28;20049;-70
2021/10/01 02:13:12;;;;;;;13.05;7.00;;;;;;;13.54;73.12;100566.66;5031667;28;20033;-70
2021/10/01 02:15:40;;;;;;;8.70;6.82;;;;;;;13.58;73.09;100564.03;5031106;28;20021;-70
2021/10/01 02:18:08;;;;;;;10.30;6.68;;;;;;;13.65;73.18;100567.16;5031730;28;20036;-70
2021/10/01 02:20:37;;;;;;;13.52;6.57;;;;;;;13.78;72.31;100556.94;5029895;28;20112;-70
2021/10/01 02:23:03;;;;;;;8.82;5.63;;;;;;;13.87;71.72;100556.91;5031464;28;20091;-70
2021/10/01 02:28:28;;;;;;;8.90;5.93;;;;;;;13.87;71.22;100574.59;5031800;28;20099;-70
2021/10/01 02:30:55;;;;;;;11.13;6.07;;;;;;;13.93;71.16;100563.22;5031098;28;20021;-70
2021/10/01 02:33:36;;;;;;;9.85;5.75;;;;;;;13.81;72.01;100567.50;5022985;28;20029;-70
2021/10/01 02:36:02;;;;;;;6.93;5.32;;;;;;;13.68;72.60;100568.50;5029334;28;20451;-70
2021/10/01 02:38:28;;;;;;;18.50;6.55;;;;;;;13.77;72.99;100560.91;5031329;28;20021;-70
2021/10/01 02:40:54;;;;;;;11.75;6.70;;;;;;;13.73;72.82;100563.53;5024823;28;20461;-70
2021/10/01 02:43:19;;;;;;;8.35;6.10;;;;;;;13.76;72.34;100562.06;5027925;28;20095;-70
2021/10/01 02:45:45;;;;;;;15.32;6.60;;;;;;;13.85;71.68;100562.88;5028977;28;20104;-70
2021/10/01 02:48:10;;;;;;;14.82;6.25;;;;;;;13.87;71.65;100557.72;5030653;28;20520;-70
2021/10/01 02:50:36;;;;;;;12.07;6.85;;;;;;;13.85;71.90;100553.63;5030635;28;20033;-70
2021/10/01 02:53:10;;;;;;;11.77;6.22;;;;;;;13.87;72.26;100559.72;5029223;28;20146;-70
2021/10/01 02:55:47;;;;;;;9.02;6.65;;;;;;;13.88;72.21;100564.19;5022804;28;20463;-70
2021/10/01 02:58:44;;;;;;;8.63;6.32;;;;;;;13.92;71.79;100561.56;5030810;28;20053;-70
2021/10/01 03:01:11;;;;;;;16.23;6.05;;;;;;;13.89;71.69;100560.22;5031519;28;20093;-70
2021/10/01 03:03:43;;;;;;;10.48;6.25;;;;;;;13.87;71.48;100556.91;5027765;28;20028;-70
2021/10/01 03:06:09;;;;;;;8.88;6.18;;;;;;;13.84;71.79;100547.16;5021801;28;20175;-70
2021/10/01 03:08:37;;;;;;;11.90;6.57;;;;;;;13.84;72.15;100552.78;5011426;28;20100;-70
2021/10/01 03:11:10;;;;;;;12.27;6.63;;;;;;;13.85;71.94;100556.44;5011721;28;20428;-70
2021/10/01 03:13:38;;;;;;;16.42;6.20;;;;;;;13.85;72.15;100560.06;5029723;28;20048;-70
2021/10/01 03:16:05;;;;;;;11.93;6.57;;;;;;;13.82;72.52;100552.28;5030652;28;20392;-70
2021/10/01 03:18:33;;;;;;;15.00;6.78;;;;;;;13.81;72.01;100553.44;5029778;28;20030;-70
2021/10/01 03:21:02;;;;;;;7.18;6.00;;;;;;;13.90;71.83;100561.88;5031092;28;20064;-70
2021/10/01 03:23:27;;;;;;;10.15;6.32;;;;;;;13.84;71.77;100552.78;5030749;28;20092;-70
2021/10/01 03:25:54;;;;;;;10.50;5.82;;;;;;;13.84;71.83;100564.03;5024083;28;20108;-70
2021/10/01 03:28:21;;;;;;;13.68;6.47;;;;;;;13.83;72.16;100559.56;5011425;28;20041;-70
2021/10/01 03:30:47;;;;;;;22.98;6.63;;;;;;;13.87;71.95;100563.34;5010018;28;20036;-70
2021/10/01 03:33:13;;;;;;;7.93;5.80;;;;;;;13.81;72.42;100561.88;5026080;28;20021;-70
2021/10/01 03:35:42;;;;;;;8.38;5.68;;;;;;;13.84;72.30;100555.59;5029770;28;20029;-70
2021/10/01 03:38:14;;;;;;;11.85;6.85;;;;;;;13.83;71.92;100558.75;5029864;28;20022;-70
2021/10/01 03:40:43;;;;;;;14.85;5.95;;;;;;;13.85;72.07;100559.25;5030885;28;20017;-70
2021/10/01 03:43:13;;;;;;;10.55;6.20;;;;;;;13.84;72.30;100558.41;5030895;28;20425;-70
2021/10/01 03:45:39;;;;;;;10.52;6.03;;;;;;;13.84;72.10;100560.41;5026911;28;20034;-70
2021/10/01 03:48:05;;;;;;;11.55;5.97;;;;;;;13.87;71.88;100562.53;5018296;28;20084;-71
2021/10/01 03:50:33;;;;;;;7.18;5.72;;;;;;;13.85;71.92;100568.50;5014702;28;20066;-71
2021/10/01 03:52:59;;;;;;;12.10;6.38;;;;;;;13.87;71.92;100566.16;5026757;28;20048;-71
2021/10/01 03:55:24;;;;;;;12.43;6.18;;;;;;;13.88;71.79;100565.03;5032167;28;20030;-71
2021/10/01 03:57:51;;;;;;;10.40;6.45;;;;;;;13.84;71.91;100569.66;5034451;28;20037;-71
2021/10/01 04:00:18;;;;;;;12.68;6.72;;;;;;;13.83;72.19;100573.63;5023221;28;20026;-71
2021/10/01 04:02:44;;;;;;;15.90;6.38;;;;;;;13.85;72.65;100568.50;5028859;28;20112;-70
2021/10/01 04:05:09;;;;;;;9.82;6.50;;;;;;;13.85;72.52;100571.31;5032062;28;20547;-70
2021/10/01 04:07:35;;;;;;;17.10;7.38;;;;;;;13.83;72.33;100568.00;5025865;28;20041;-70
2021/10/01 04:10:00;;;;;;;12.30;7.07;;;;;;;13.85;72.57;100568.50;5029067;28;20479;-70
2021/10/01 04:12:27;;;;;;;12.10;6.97;;;;;;;13.89;72.58;100563.88;5022637;28;20064;-71
2021/10/01 04:14:53;;;;;;;9.88;7.00;;;;;;;13.85;72.66;100574.13;5021442;28;20030;-71
2021/10/01 04:17:18;;;;;;;15.68;7.78;;;;;;;13.85;72.84;100571.31;5026249;28;20562;-71
2021/10/01 04:19:44;;;;;;;14.07;6.75;;;;;;;13.82;72.74;100569.16;5026772;28;20045;-71
2021/10/01 04:22:09;;;;;;;9.60;7.05;;;;;;;13.81;72.85;100572.28;5022611;28;20030;-71
2021/10/01 04:24:35;;;;;;;8.90;6.35;;;;;;;13.83;72.76;100570.81;5028937;28;20029;-70
2021/10/01 04:27:00;;;;;;;11.02;6.72;;;;;;;13.85;72.68;100573.31;5030523;28;20112;-70
2021/10/01 04:29:26;;;;;;;8.10;6.40;;;;;;;13.85;72.80;100578.94;5032450;28;20447;-70
2021/10/01 04:31:52;;;;;;;12.73;6.68;;;;;;;13.87;72.51;100577.41;5030769;28;20048;-70
2021/10/01 04:34:19;;;;;;;12.00;7.32;;;;;;;13.84;73.08;100586.53;5033066;28;20040;-70
2021/10/01 04:36:44;;;;;;;13.45;8.38;;;;;;;13.84;73.27;100586.53;5031784;28;20055;-72
2021/10/01 04:39:12;;;;;;;19.58;8.45;;;;;;;13.81;72.97;100594.78;5018292;28;20034;-71
2021/10/01 04:41:37;;;;;;;409.52;40.80;;;;;;;13.84;72.23;100591.34;5016808;28;20496;-71
2021/10/01 04:44:03;;;;;;;16.58;7.63;;;;;;;13.86;72.49;100595.44;5027848;28;20040;-69
2021/10/01 04:46:29;;;;;;;9.98;7.40;;;;;;;13.86;71.80;100589.81;5028032;28;21723;-69
2021/10/01 04:48:55;;;;;;;14.93;7.88;;;;;;;13.82;72.64;100591.66;5029790;28;20100;-69
2021/10/01 04:51:22;;;;;;;11.63;8.10;;;;;;;13.87;72.32;100599.09;5032964;28;20167;-69
2021/10/01 04:53:48;;;;;;;13.70;8.23;;;;;;;13.87;72.35;100601.91;5032371;28;20034;-69
2021/10/01 04:56:14;;;;;;;14.75;7.78;;;;;;;13.86;72.31;100603.06;5023355;28;20030;-70
2021/10/01 04:58:40;;;;;;;13.23;8.32;;;;;;;13.88;71.95;100600.75;5016109;28;20025;-69
2021/10/01 05:01:05;;;;;;;10.93;8.38;;;;;;;13.85;72.50;100613.47;5027547;28;20037;-69
2021/10/01 05:03:31;;;;;;;10.75;7.72;;;;;;;13.82;72.25;100614.16;5027317;28;20107;-69
2021/10/01 05:05:56;;;;;;;16.70;8.38;;;;;;;13.83;72.16;100612.19;5027620;28;20033;-69
2021/10/01 05:08:22;;;;;;;13.32;8.38;;;;;;;13.79;72.67;100617.63;5028477;28;20033;-69
2021/10/01 05:10:48;;;;;;;14.02;8.82;;;;;;;13.79;72.49;100617.63;5026928;28;20551;-70
2021/10/01 05:13:13;;;;;;;12.95;9.88;;;;;;;13.87;72.36;100618.78;5028435;28;20424;-70
2021/10/01 05:15:41;;;;;;;11.82;9.60;;;;;;;13.76;72.71;100623.91;5027154;28;20028;-70
2021/10/01 05:18:07;;;;;;;20.90;9.77;;;;;;;13.83;72.66;100627.06;5027538;28;20472;-70
2021/10/01 05:20:33;;;;;;;16.55;9.30;;;;;;;13.90;72.33;100620.94;5026416;28;20033;-73
2021/10/01 05:23:02;;;;;;;24.38;9.45;;;;;;;13.89;72.25;100628.56;5027756;28;20152;-72
2021/10/01 05:25:28;;;;;;;12.52;9.20;;;;;;;13.96;71.83;100627.22;5029347;28;20037;-71
2021/10/01 05:27:53;;;;;;;13.23;9.43;;;;;;;13.84;72.05;100625.88;5032601;28;20021;-71
2021/10/01 05:30:19;;;;;;;18.38;8.73;;;;;;;13.79;72.66;100633.66;5030436;28;20496;-72
2021/10/01 05:32:45;;;;;;;17.88;9.02;;;;;;;13.95;72.44;100625.56;5032453;28;20544;-73
2021/10/01 05:35:10;;;;;;;15.27;8.88;;;;;;;13.93;72.10;100633.50;5027673;28;20554;-72
2021/10/01 05:37:36;;;;;;;17.17;9.73;;;;;;;13.89;71.82;100638.97;5025317;28;20470;-71
2021/10/01 05:40:03;;;;;;;14.77;9.45;;;;;;;13.88;72.10;100631.69;5027044;28;20038;-71
2021/10/01 05:42:28;;;;;;;18.30;9.70;;;;;;;13.95;71.90;100636.81;5027019;28;20057;-71
2021/10/01 05:44:54;;;;;;;11.77;9.45;;;;;;;14.00;71.67;100633.88;5026241;28;20068;-72
2021/10/01 05:47:19;;;;;;;12.77;9.85;;;;;;;13.91;72.58;100639.47;5025964;28;20036;-71
2021/10/01 05:49:45;;;;;;;15.68;11.48;;;;;;;13.96;72.18;100644.09;5024054;28;20545;-71
2021/10/01 05:52:24;;;;;;;38.28;11.55;;;;;;;13.97;72.37;100643.78;5029175;28;20060;-71
2021/10/01 05:54:51;;;;;;;15.48;10.75;;;;;;;13.98;71.87;100636.16;5032223;28;20033;-71
2021/10/01 05:57:18;;;;;;;18.77;12.35;;;;;;;14.03;72.24;100644.44;5016836;28;20036;-71
2021/10/01 05:59:45;;;;;;;20.80;11.25;;;;;;;14.01;72.05;100646.78;5021016;28;20048;-71
2021/10/01 06:02:21;;;;;;;17.65;11.25;;;;;;;14.06;71.69;100649.41;5026402;28;20032;-71
2021/10/01 06:04:52;;;;;;;21.27;12.13;;;;;;;14.07;71.47;100648.25;5030480;28;20040;-71
2021/10/01 06:07:18;;;;;;;20.55;12.18;;;;;;;14.13;71.27;100646.94;5031149;28;20030;-71
2021/10/01 06:09:44;;;;;;;20.63;11.57;;;;;;;14.08;71.07;100652.72;5023092;28;20025;-71
2021/10/01 06:12:11;;;;;;;20.17;11.38;;;;;;;14.12;71.12;100658.50;5030619;28;20132;-71
2021/10/01 06:14:37;;;;;;;47.75;13.10;;;;;;;14.14;71.21;100656.19;5030760;28;20033;-71
2021/10/01 06:17:07;;;;;;;48.00;12.75;;;;;;;14.19;70.68;100656.03;5024226;28;20033;-71
2021/10/01 06:19:34;;;;;;;20.70;12.00;;;;;;;14.17;70.42;100656.38;5025332;28;20033;-71
2021/10/01 06:22:05;;;;;;;22.23;12.95;;;;;;;14.17;69.39;100661.16;5028366;28;20108;-71
2021/10/01 06:24:30;;;;;;;25.88;13.02;;;;;;;14.23;69.50;100659.00;5027993;28;20032;-71
2021/10/01 06:26:56;;;;;;;23.25;12.95;;;;;;;14.21;69.07;100667.78;5027824;28;20112;-71
2021/10/01 06:29:22;;;;;;;19.10;12.25;;;;;;;14.29;69.17;100668.94;5030001;28;20025;-71
2021/10/01 06:31:47;;;;;;;15.95;10.95;;;;;;;14.25;68.57;100667.97;5028469;28;20032;-71
2021/10/01 06:34:13;;;;;;;21.23;12.65;;;;;;;14.37;67.84;100670.09;5025555;28;20160;-72
2021/10/01 06:36:39;;;;;;;19.98;12.57;;;;;;;14.29;68.05;100675.38;5025244;28;20420;-71
2021/10/01 06:39:06;;;;;;;24.98;11.50;;;;;;;14.27;67.18;100682.53;5025919;28;20021;-71
2021/10/01 06:41:32;;;;;;;21.38;12.23;;;;;;;14.30;67.51;100677.06;5026858;28;20025;-71
2021/10/01 06:44:00;;;;;;;29.30;12.35;;;;;;;14.25;67.91;100682.03;5026988;28;20039;-71
2021/10/01 07:24:26;;;;;;;15.23;9.02;;;;;;;15.27;59.25;100674.06;5035151;28;20043;-70
2021/10/01 08:19:39;;;;;;;9.40;5.25;;;;;;;15.72;47.65;100657.78;5029802;28;20047;-70
2021/10/01 08:21:59;;;;;;;7.55;5.28;;;;;;;15.72;47.71;100652.13;5027475;28;20102;-70
2021/10/01 08:24:27;;;;;;;15.05;5.97;;;;;;;16.13;45.21;100656.16;5022060;28;20072;-70
2021/10/01 08:26:54;;;;;;;9.18;5.00;;;;;;;15.96;45.96;100653.50;5033375;28;20064;-70
2021/10/01 08:29:20;;;;;;;11.00;5.88;;;;;;;16.00;47.21;100654.44;5031963;28;20108;-70
2021/10/01 08:31:48;;;;;;;11.93;6.03;;;;;;;15.96;46.80;100656.31;5033346;28;20134;-70
2021/10/01 08:34:16;;;;;;;12.93;5.78;;;;;;;16.14;46.68;100657.81;5033294;28;20038;-70
2021/10/01 08:36:42;;;;;;;8.30;5.43;;;;;;;16.31;46.45;100655.22;5028453;28;20039;-70
2021/10/01 08:39:08;;;;;;;20.65;7.25;;;;;;;16.41;46.22;100652.81;5028827;28;20029;-71
2021/10/01 08:41:36;;;;;;;20.92;6.32;;;;;;;16.46;46.36;100650.94;5031656;28;20033;-70
2021/10/01 08:44:02;;;;;;;15.93;6.10;;;;;;;16.56;46.05;100653.31;5030898;28;20084;-70
2021/10/01 08:46:29;;;;;;;9.32;6.20;;;;;;;16.46;45.84;100650.94;5029507;28;20033;-70
2021/10/01 08:48:59;;;;;;;10.90;5.47;;;;;;;16.39;46.63;100648.66;5024215;28;20033;-70
2021/10/01 08:51:25;;;;;;;8.90;6.18;;;;;;;16.42;44.96;100643.16;5027387;28;20030;-70
2021/10/01 08:53:53;;;;;;;8.80;5.65;;;;;;;16.38;45.49;100647.81;5023964;28;20036;-70
2021/10/01 08:56:19;;;;;;;7.55;6.03;;;;;;;16.45;45.36;100641.63;5023084;28;20036;-70
2021/10/01 08:58:45;;;;;;;12.18;6.60;;;;;;;16.44;45.66;100639.97;5027531;28;20036;-70
2021/10/01 09:01:11;;;;;;;9.23;6.45;;;;;;;16.32;45.55;100642.75;5027072;28;20029;-70
2021/10/01 09:03:41;;;;;;;42.10;8.40;;;;;;;16.45;45.33;100638.00;5031019;28;20041;-70
2021/10/01 09:06:06;;;;;;;14.23;6.45;;;;;;;16.50;46.59;100632.94;5029816;28;20076;-70
2021/10/01 09:08:34;;;;;;;11.82;5.53;;;;;;;16.74;46.21;100628.56;5028685;28;20402;-70
2021/10/01 09:11:03;;;;;;;13.10;6.32;;;;;;;17.15;44.87;100630.75;5025931;28;20113;-70
2021/10/01 09:13:29;;;;;;;8.13;5.78;;;;;;;17.51;45.74;100637.63;5026750;28;20044;-70
2021/10/01 09:16:06;;;;;;;44.28;25.70;;;;;;;17.52;44.44;100627.94;5029539;28;20423;-70
2021/10/01 09:18:35;;;;;;;19.40;12.90;;;;;;;17.46;43.01;100633.00;5026031;28;20448;-69
2021/10/01 09:21:13;;;;;;;12.32;5.88;;;;;;;17.36;43.09;100627.81;5029854;28;20039;-70
2021/10/01 09:23:46;;;;;;;15.75;6.68;;;;;;;17.42;44.75;100632.09;5027632;28;20445;-71
2021/10/01 09:26:15;;;;;;;8.05;6.57;;;;;;;17.50;43.18;100622.66;5025255;28;20027;-70
2021/10/01 09:29:05;;;;;;;17.52;6.32;;;;;;;17.94;44.61;100618.34;5026705;28;20033;-71
2021/10/01 09:31:33;;;;;;;14.30;6.72;;;;;;;17.96;42.61;100621.63;5029288;28;20022;-72
2021/10/01 09:33:59;;;;;;;10.88;6.68;;;;;;;17.94;42.48;100624.84;5024901;28;20029;-72
2021/10/01 09:36:26;;;;;;;8.65;5.72;;;;;;;17.82;41.79;100622.84;5021839;28;20496;-72
2021/10/01 09:38:53;;;;;;;11.57;5.93;;;;;;;17.83;43.33;100624.47;5025536;28;20021;-72
2021/10/01 09:41:25;;;;;;;15.40;5.53;;;;;;;17.87;41.03;100615.31;5018002;28;20029;-69
2021/10/01 09:44:13;;;;;;;13.98;5.95;;;;;;;18.15;40.71;100608.88;5028202;28;20017;-71
2021/10/01 09:46:45;;;;;;;13.23;5.65;;;;;;;18.28;40.23;100610.47;5019669;28;20503;-70
2021/10/01 09:49:15;;;;;;;9.65;6.25;;;;;;;18.22;41.52;100611.91;5012339;28;20025;-70
2021/10/01 09:51:48;;;;;;;;;;;;;;;18.16;41.69;100610.53;5011424;28;20477;-69
2021/10/01 09:54:15;;;;;;;10.75;5.88;;;;;;;18.30;41.38;100610.94;5014747;28;19920;-69
2021/10/01 09:56:41;;;;;;;15.20;6.32;;;;;;;18.33;39.98;100606.56;5018476;28;20084;-69
2021/10/01 09:59:13;;;;;;;11.32;5.72;;;;;;;18.58;41.27;100612.94;5012479;28;20608;-70
2021/10/01 10:02:12;;;;;;;9.88;6.20;;;;;;;18.58;41.20;100604.44;5025809;28;20026;-70
2021/10/01 10:04:39;;;;;;;11.30;7.30;;;;;;;18.48;39.52;100607.81;5014519;28;20022;-69
2021/10/01 10:07:15;;;;;;;15.52;6.07;;;;;;;18.45;38.17;100597.16;5019399;28;20030;-70
2021/10/01 10:09:50;;;;;;;10.68;5.88;;;;;;;18.58;40.14;100590.28;5023626;28;20021;-70
2021/10/01 10:12:37;;;;;;;7.00;5.10;;;;;;;19.25;40.46;100582.28;5019913;28;20501;-69
2021/10/01 10:15:14;;;;;;;19.20;9.32;;;;;;;19.92;37.68;100584.22;5028807;28;20041;-69
2021/10/01 10:17:50;;;;;;;18.75;13.68;;;;;;;20.06;38.55;100580.88;5013925;28;20029;-69
2021/10/01 10:20:18;;;;;;;13.07;7.22;;;;;;;20.00;37.71;100577.53;5020436;28;20032;-70
2021/10/01 10:22:44;;;;;;;16.30;6.85;;;;;;;19.70;37.33;100580.91;5012383;28;20033;-70
2021/10/01 10:25:09;;;;;;;13.80;5.65;;;;;;;19.13;37.27;100578.34;5011198;28;20024;-70
2021/10/01 10:27:35;;;;;;;11.38;5.20;;;;;;;18.80;36.95;100571.00;5020448;28;20208;-71
2021/10/01 10:30:04;;;;;;;15.02;10.23;;;;;;;19.78;40.12;100574.19;5012510;28;20068;-71
2021/10/01 10:32:31;;;;;;;41.28;24.92;;;;;;;21.32;35.31;100567.38;5015711;28;20032;-72
2021/10/01 10:35:07;;;;;;;22.42;12.68;;;;;;;22.12;34.88;100559.97;5023039;28;20026;-72
2021/10/01 10:37:48;;;;;;;10.48;4.95;;;;;;;21.10;33.29;100552.00;5028871;28;20107;-71
2021/10/01 10:40:15;;;;;;;6.80;5.13;;;;;;;20.71;34.66;100565.13;5022299;28;20032;-70
2021/10/01 10:42:44;;;;;;;12.00;5.63;;;;;;;20.21;34.49;100550.78;5030148;28;20029;-70
2021/10/01 10:45:24;;;;;;;17.55;5.60;;;;;;;20.01;35.31;100556.44;5029656;28;20167;-70
2021/10/01 10:47:52;;;;;;;;;;;;;;;20.01;36.41;100547.13;5027080;28;20033;-69
2021/10/01 10:50:26;;;;;;;9.02;4.93;;;;;;;20.17;35.00;100552.72;5025509;28;19976;-71
2021/10/01 10:53:04;;;;;;;8.73;5.60;;;;;;;19.71;35.55;100539.16;5022771;28;20044;-70
2021/10/01 10:55:32;;;;;;;12.43;6.63;;;;;;;19.62;37.45;100536.53;5027399;28;20037;-70
2021/10/01 10:57:57;;;;;;;7.40;5.47;;;;;;;19.67;35.57;100536.25;5025533;28;20087;-71
2021/10/01 11:00:28;;;;;;;7.18;4.85;;;;;;;19.89;35.04;100536.69;5026036;28;20029;-72
2021/10/01 11:03:22;;;;;;;10.85;5.65;;;;;;;19.86;36.17;100532.59;5019457;28;20041;-72
2021/10/01 11:06:13;;;;;;;5.90;5.07;;;;;;;19.66;35.06;100528.91;5021979;28;20029;-73
2021/10/01 11:08:45;;;;;;;13.65;5.10;;;;;;;20.22;33.76;100521.16;5025901;28;20021;-73
2021/10/01 11:11:29;;;;;;;10.10;6.32;;;;;;;20.10;33.55;100512.81;5029077;28;20056;-73
2021/10/01 11:14:13;;;;;;;8.10;4.80;;;;;;;20.02;34.36;100518.34;5025184;28;20037;-73
2021/10/01 11:16:38;;;;;;;9.35;4.80;;;;;;;19.74;34.44;100513.69;5023336;28;20037;-73
2021/10/01 11:19:05;;;;;;;19.58;6.95;;;;;;;19.15;36.68;100510.75;5026285;28;20121;-74
2021/10/01 11:21:33;;;;;;;9.48;6.05;;;;;;;19.32;36.46;100515.19;5027979;28;20120;-73
2021/10/01 11:24:17;;;;;;;5.30;4.65;;;;;;;19.41;35.62;100500.81;5029223;28;20067;-73
2021/10/01 11:26:58;;;;;;;12.80;5.78;;;;;;;19.10;36.03;100508.22;5025247;28;20484;-73
2021/10/01 11:29:33;;;;;;;9.90;5.32;;;;;;;19.25;35.99;100506.53;5027525;28;20029;-71
2021/10/01 11:32:00;;;;;;;9.98;5.32;;;;;;;19.13;37.01;100498.16;5020105;28;20450;-71
2021/10/01 11:34:38;;;;;;;13.63;6.53;;;;;;;19.15;38.04;100499.41;5028196;28;20030;-71
2021/10/01 11:37:38;;;;;;;11.52;5.50;;;;;;;19.16;37.63;100501.06;5028508;28;20402;-71
2021/10/01 11:40:09;;;;;;;14.27;7.00;;;;;;;19.12;39.22;100499.31;5027433;28;20035;-71
2021/10/01 11:42:38;;;;;;;19.10;7.00;;;;;;;19.09;38.52;100498.06;5027036;28;20044;-71
2021/10/01 11:45:16;;;;;;;17.45;6.30;;;;;;;19.07;38.01;100489.09;5029094;28;20381;-71
2021/10/01 11:47:58;;;;;;;10.15;5.00;;;;;;;19.18;37.54;100478.00;5024998;28;20110;-71
2021/10/01 11:50:31;;;;;;;11.95;6.38;;;;;;;19.17;37.21;100473.53;5025511;28;20031;-71
2021/10/01 11:52:58;;;;;;;8.13;5.53;;;;;;;19.30;37.32;100480.72;5029778;28;20029;-71
2021/10/01 11:55:26;;;;;;;10.93;5.55;;;;;;;19.21;36.78;100480.94;5027566;28;20037;-71
2021/10/01 11:57:52;;;;;;;10.60;5.22;;;;;;;19.26;37.06;100479.00;5024953;28;20049;-71
2021/10/01 12:00:18;;;;;;;13.80;5.35;;;;;;;19.15;37.09;100478.75;5022592;28;20034;-71
2021/10/01 12:02:47;;;;;;;9.32;5.28;;;;;;;19.07;37.37;100470.06;5012689;28;20048;-71
2021/10/01 12:05:22;;;;;;;15.23;6.22;;;;;;;19.01;36.93;100471.56;5016354;28;20087;-71
2021/10/01 12:08:03;;;;;;;11.40;5.85;;;;;;;18.91;37.34;100466.44;5021001;28;20044;-71
2021/10/01 12:10:33;;;;;;;19.55;6.10;;;;;;;18.93;37.28;100472.53;5030695;28;20037;-71
2021/10/01 12:13:05;;;;;;;13.05;6.68;;;;;;;18.93;36.29;100469.72;5031033;28;20033;-72
2021/10/01 12:15:34;;;;;;;11.35;4.88;;;;;;;18.94;35.71;100469.34;5022774;28;20033;-74
2021/10/01 12:18:00;;;;;;;11.07;5.38;;;;;;;18.95;34.67;100470.16;5028261;28;20026;-73
2021/10/01 12:20:25;;;;;;;8.70;5.55;;;;;;;18.77;35.41;100469.72;5017398;28;20556;-73
2021/10/01 12:22:51;;;;;;;9.95;5.78;;;;;;;18.75;35.02;100463.59;5029143;28;20030;-73
2021/10/01 12:25:25;;;;;;;15.10;6.13;;;;;;;18.93;36.21;100466.88;5031102;28;20083;-71
2021/10/01 12:27:50;;;;;;;9.95;5.38;;;;;;;18.94;35.31;100458.00;5033042;28;20432;-73
2021/10/01 12:30:16;;;;;;;7.55;4.65;;;;;;;18.90;35.15;100454.25;5032093;28;20167;-73
2021/10/01 12:32:42;;;;;;;7.53;5.18;;;;;;;19.22;35.94;100444.88;5032902;28;20064;-73
2021/10/01 12:35:11;;;;;;;7.75;4.25;;;;;;;19.40;34.35;100450.13;5031570;28;20083;-73
2021/10/01 12:37:40;;;;;;;9.00;5.05;;;;;;;19.38;34.62;100444.81;5031480;28;20035;-72
2021/10/01 12:40:07;;;;;;;5.28;4.28;;;;;;;19.47;34.35;100444.59;5031381;28;20026;-72
2021/10/01 12:42:36;;;;;;;13.40;5.10;;;;;;;19.48;35.29;100440.56;5024306;28;20413;-73
